Time;durP1;ratioP1;P1;durP2;ratioP2;P2;SDS_P1;SDS_P2;PMS_P1;PMS_P2;Temp;Humidity;BMP_temperature;BMP_pressure;BME280_temperature;BME280_humidity;BME280_pressure;Samples;Min_cycle;Max_cycle;Signal;HPM_P1;HPM_P2
2021/11/02 00:02:15;;;;;;;5.55;3.72;;;;;;;;;;4998920;28;20177;-80
2021/11/02 00:04:41;;;;;;;6.25;3.08;;;;;;;;;;5013562;28;20026;-80
2021/11/02 00:07:07;;;;;;;6.57;3.13;;;;;;;;;;4999152;28;20056;-80
2021/11/02 00:09:34;;;;;;;8.38;4.10;;;;;;;;;;4998675;28;20432;-80
2021/11/02 00:12:01;;;;;;;9.23;5.25;;;;;;;;;;4998431;28;20091;-80
2021/11/02 00:14:29;;;;;;;8.25;4.55;;;;;;;;;;4998333;28;20026;-80
2021/11/02 00:17:05;;;;;;;7.57;3.80;;;;;;;;;;5013688;28;20029;-80
2021/11/02 00:19:32;;;;;;;10.35;3.90;;;;;;;;;;4998084;28;20038;-80
2021/11/02 00:22:06;;;;;;;5.80;3.47;;;;;;;;;;4996444;28;20038;-80
2021/11/02 00:27:46;;;;;;;6.53;3.33;;;;;;;;;;5007736;28;20030;-80
2021/11/02 00:30:13;;;;;;;6.45;3.28;;;;;;;;;;5000366;28;20034;-80
2021/11/02 00:32:39;;;;;;;5.57;3.30;;;;;;;;;;5003398;28;20030;-80
2021/11/02 00:35:06;;;;;;;7.32;3.00;;;;;;;;;;5002939;28;20113;-80
2021/11/02 00:37:33;;;;;;;6.70;3.08;;;;;;;;;;4999439;28;20073;-80
2021/11/02 00:40:00;;;;;;;9.65;3.40;;;;;;;;;;4997629;28;20034;-80
2021/11/02 00:42:32;;;;;;;4.38;2.92;;;;;;;;;;4998410;28;20035;-80
2021/11/02 00:45:01;;;;;;;7.72;3.15;;;;;;;;;;5012943;28;20034;-80
2021/11/02 00:47:27;;;;;;;7.45;3.53;;;;;;;;;;4997507;28;20077;-80
2021/11/02 00:49:54;;;;;;;6.85;3.17;;;;;;;;;;4996782;28;20056;-80
2021/11/02 00:52:20;;;;;;;7.70;3.28;;;;;;;;;;4995792;28;20033;-80
2021/11/02 00:54:46;;;;;;;8.30;3.40;;;;;;;;;;4996276;28;20092;-80
2021/11/02 00:57:13;;;;;;;5.28;2.78;;;;;;;;;;4997091;28;20090;-79
2021/11/02 00:59:39;;;;;;;7.20;3.20;;;;;;;;;;5011275;28;20030;-80
2021/11/02 01:02:08;;;;;;;8.35;3.22;;;;;;;;;;4997289;28;20372;-80
2021/11/02 01:04:34;;;;;;;5.85;4.18;;;;;;;;;;4997299;28;20027;-80
2021/11/02 01:07:00;;;;;;;6.50;2.70;;;;;;;;;;4997067;28;20712;-80
2021/11/02 01:09:26;;;;;;;8.80;2.60;;;;;;;;;;4997401;28;20030;-80
2021/11/02 01:11:53;;;;;;;5.90;2.47;;;;;;;;;;4997111;28;20041;-80
2021/11/02 01:14:19;;;;;;;4.90;2.20;;;;;;;;;;4997117;28;20054;-80
2021/11/02 01:16:45;;;;;;;5.38;2.80;;;;;;;;;;5012104;28;20049;-80
2021/11/02 01:19:12;;;;;;;5.40;3.00;;;;;;;;;;4997194;28;20026;-80
2021/11/02 01:21:37;;;;;;;5.15;2.90;;;;;;;;;;4997033;28;20027;-80
2021/11/02 01:24:04;;;;;;;7.38;3.10;;;;;;;;;;4997359;28;20507;-80
2021/11/02 01:26:30;;;;;;;7.45;3.10;;;;;;;;;;4997684;28;20033;-80
2021/11/02 01:28:56;;;;;;;5.72;3.00;;;;;;;;;;4997756;28;20050;-80
2021/11/02 01:31:22;;;;;;;6.43;2.65;;;;;;;;;;4997267;28;20034;-80
2021/11/02 01:33:48;;;;;;;6.75;3.17;;;;;;;;;;4998149;28;20545;-80
2021/11/02 01:36:15;;;;;;;5.93;3.30;;;;;;;;;;5003901;28;20026;-80
2021/11/02 01:38:42;;;;;;;5.18;2.88;;;;;;;;;;5012641;28;20027;-79
2021/11/02 01:41:18;;;;;;;7.07;3.40;;;;;;;;;;5005823;28;20023;-80
2021/11/02 01:43:44;;;;;;;4.32;2.85;;;;;;;;;;5012384;28;20033;-79
2021/11/02 01:46:24;;;;;;;5.07;3.05;;;;;;;;;;5011577;28;20542;-80
2021/11/02 01:48:52;;;;;;;6.38;3.25;;;;;;;;;;4997382;28;20030;-80
2021/11/02 08:47:41;;;;;;;3.35;1.75;;;;;;;;;;4991990;28;20046;-77
2021/11/02 08:50:09;;;;;;;4.40;1.30;;;;;;;;;;4981629;28;20033;-77
2021/11/02 08:52:36;;;;;;;4.15;1.40;;;;;;;;;;4979620;28;20108;-77
2021/11/02 08:55:04;;;;;;;6.32;1.77;;;;;;;;;;4983279;28;20019;-77
2021/11/02 08:57:30;;;;;;;3.05;1.30;;;;;;;;;;4989165;28;20172;-77
2021/11/02 08:59:56;;;;;;;2.97;1.70;;;;;;;;;;4991572;28;20506;-77
2021/11/02 09:02:42;;;;;;;4.07;1.80;;;;;;;;;;4991209;28;20447;-77
2021/11/02 09:05:10;;;;;;;2.47;1.45;;;;;;;;;;4985158;28;20510;-77
2021/11/02 09:07:37;;;;;;;5.60;1.88;;;;;;;;;;4996339;28;20156;-77
2021/11/02 09:10:07;;;;;;;6.32;2.38;;;;;;;;;;5005249;28;20526;-77
2021/11/02 09:12:33;;;;;;;7.20;2.25;;;;;;;;;;4994740;28;20034;-77
2021/11/02 09:15:02;;;;;;;5.13;2.03;;;;;;;;;;4999914;28;20101;-77
2021/11/02 09:17:32;;;;;;;4.68;2.28;;;;;;;;;;4993251;28;20483;-78
2021/11/02 09:19:59;;;;;;;7.25;3.30;;;;;;;;;;4984018;28;20026;-77
2021/11/02 09:22:25;;;;;;;5.13;1.95;;;;;;;;;;4995983;28;20494;-78
2021/11/02 09:24:52;;;;;;;4.50;2.15;;;;;;;;;;4993789;28;20109;-77
2021/11/02 09:27:18;;;;;;;5.38;1.13;;;;;;;;;;4995977;28;20089;-77
2021/11/02 09:29:46;;;;;;;2.65;1.13;;;;;;;;;;4997928;28;20081;-77
2021/11/02 09:32:12;;;;;;;1.67;0.70;;;;;;;;;;4992594;28;20037;-77
2021/11/02 09:34:38;;;;;;;2.63;0.80;;;;;;;;;;4992926;28;20046;-77
2021/11/02 09:37:10;;;;;;;2.83;0.80;;;;;;;;;;4994198;28;20034;-78
2021/11/02 09:39:41;;;;;;;3.20;1.00;;;;;;;;;;4985232;28;20027;-82
2021/11/02 09:42:36;;;;;;;2.50;0.77;;;;;;;;;;4985612;28;20034;-80
2021/11/02 09:45:04;;;;;;;5.07;0.82;;;;;;;;;;4984404;28;20120;-83
2021/11/02 09:47:33;;;;;;;3.58;1.20;;;;;;;;;;4983312;28;20057;-82
2021/11/02 09:50:35;;;;;;;5.18;3.47;;;;;;;;;;5004642;28;20387;-79
2021/11/02 09:53:00;;;;;;;2.53;1.27;;;;;;;;;;4995950;28;20438;-79
2021/11/02 09:55:26;;;;;;;3.17;0.85;;;;;;;;;;4980075;28;20113;-79
2021/11/02 09:58:08;;;;;;;4.68;1.10;;;;;;;;;;4986393;28;20495;-79
2021/11/02 10:00:58;;;;;;;2.22;0.80;;;;;;;;;;4997445;28;20030;-79
2021/11/02 10:03:31;;;;;;;4.00;0.85;;;;;;;;;;4998387;28;20057;-79
2021/11/02 10:06:04;;;;;;;5.18;1.00;;;;;;;;;;4996501;28;20045;-81
2021/11/02 10:08:51;;;;;;;1.95;0.90;;;;;;;;;;4998447;28;20143;-79
2021/11/02 10:11:26;;;;;;;2.97;1.25;;;;;;;;;;5001625;28;20041;-84
2021/11/02 10:14:00;;;;;;;6.35;1.23;;;;;;;;;;5005129;28;20029;-80
2021/11/02 10:16:45;;;;;;;6.28;1.38;;;;;;;;;;4991102;28;20467;-81
2021/11/02 10:19:14;;;;;;;7.45;2.55;;;;;;;;;;4988857;28;20045;-79
2021/11/02 10:21:59;;;;;;;4.57;1.13;;;;;;;;;;4990900;28;20031;-80
2021/11/02 10:24:43;;;;;;;6.72;1.80;;;;;;;;;;4995675;28;20030;-79
2021/11/02 10:27:12;;;;;;;3.70;1.10;;;;;;;;;;5006280;28;20041;-81
2021/11/02 10:29:49;;;;;;;4.50;1.58;;;;;;;;;;5000942;28;20036;-77
2021/11/02 10:32:18;;;;;;;4.18;1.20;;;;;;;;;;4991178;28;20490;-77
2021/11/02 10:34:48;;;;;;;5.70;1.20;;;;;;;;;;4991862;28;20108;-77
2021/11/02 10:37:23;;;;;;;3.95;1.27;;;;;;;;;;4984871;28;20030;-77
2021/11/02 10:40:02;;;;;;;3.20;1.20;;;;;;;;;;4993229;28;20034;-77
2021/11/02 10:42:33;;;;;;;5.60;1.40;;;;;;;;;;4993007;28;20041;-77
2021/11/02 10:45:00;;;;;;;3.33;1.33;;;;;;;;;;4992951;28;20073;-77
2021/11/02 10:47:45;;;;;;;4.25;1.35;;;;;;;;;;4992871;28;20541;-79
2021/11/02 10:50:12;;;;;;;5.15;1.20;;;;;;;;;;4995701;28;20040;-77
2021/11/02 10:52:39;;;;;;;4.72;1.40;;;;;;;;;;4994488;28;20033;-78
2021/11/02 10:55:08;;;;;;;7.35;1.50;;;;;;;;;;4993096;28;20085;-77
2021/11/02 10:57:39;;;;;;;3.97;1.05;;;;;;;;;;4988530;28;20029;-77
2021/11/02 11:00:09;;;;;;;3.17;1.00;;;;;;;;;;4992654;28;20034;-79
2021/11/02 11:02:37;;;;;;;3.40;0.80;;;;;;;;;;4992168;28;20038;-78
2021/11/02 11:05:04;;;;;;;0.95;0.50;;;;;;;;;;4995308;28;20057;-77
2021/11/02 11:07:40;;;;;;;1.42;0.77;;;;;;;;;;4976670;28;20385;-78
2021/11/02 11:10:08;;;;;;;4.15;0.60;;;;;;;;;;4999255;28;20034;-78
2021/11/02 11:12:35;;;;;;;2.53;0.88;;;;;;;;;;4993274;28;20034;-78
2021/11/02 11:15:05;;;;;;;3.15;0.50;;;;;;;;;;4993083;28;20037;-78
2021/11/02 11:17:32;;;;;;;1.67;0.50;;;;;;;;;;4991390;28;20028;-78
2021/11/02 11:20:06;;;;;;;1.70;0.60;;;;;;;;;;4993070;28;20034;-77
2021/11/02 11:22:37;;;;;;;1.65;0.47;;;;;;;;;;4993386;28;20042;-77
2021/11/02 11:25:05;;;;;;;1.98;0.50;;;;;;;;;;4991693;28;20054;-77
2021/11/02 11:27:34;;;;;;;2.20;0.40;;;;;;;;;;4991015;28;20071;-77
2021/11/02 11:30:05;;;;;;;2.67;0.38;;;;;;;;;;5009087;28;20034;-80
2021/11/02 11:32:34;;;;;;;0.85;0.43;;;;;;;;;;5010246;28;20027;-79
2021/11/02 11:35:02;;;;;;;1.20;0.47;;;;;;;;;;4996445;28;20094;-79
2021/11/02 11:37:28;;;;;;;1.95;0.50;;;;;;;;;;4993005;28;20030;-79
2021/11/02 11:40:00;;;;;;;1.73;0.50;;;;;;;;;;4992751;28;20061;-76
2021/11/02 11:42:29;;;;;;;3.63;0.40;;;;;;;;;;4993321;28;20033;-79
2021/11/02 11:44:59;;;;;;;3.13;0.55;;;;;;;;;;4992837;28;20035;-76
2021/11/02 11:47:25;;;;;;;3.88;0.90;;;;;;;;;;4994439;28;20057;-78
2021/11/02 11:49:52;;;;;;;1.75;0.43;;;;;;;;;;4994488;28;20043;-78
2021/11/02 11:52:24;;;;;;;1.75;0.80;;;;;;;;;;4990145;28;20026;-78
2021/11/02 11:54:54;;;;;;;3.30;1.35;;;;;;;;;;4994701;28;20034;-78
2021/11/02 11:57:27;;;;;;;3.95;1.23;;;;;;;;;;4992432;28;20030;-77
2021/11/02 12:00:06;;;;;;;2.97;2.70;;;;;;;;;;4993239;28;20109;-77
2021/11/02 12:02:37;;;;;;;3.38;1.13;;;;;;;;;;4988983;28;20033;-78
2021/11/02 12:05:05;;;;;;;1.83;0.68;;;;;;;;;;4991910;28;20480;-78
2021/11/02 12:07:51;;;;;;;0.75;0.40;;;;;;;;;;4990977;28;20065;-79
2021/11/02 12:10:21;;;;;;;2.85;0.63;;;;;;;;;;4978267;28;20026;-78
2021/11/02 12:12:49;;;;;;;1.17;0.40;;;;;;;;;;4992072;28;20050;-78
2021/11/02 12:15:16;;;;;;;0.90;0.40;;;;;;;;;;4992019;28;20034;-78
2021/11/02 12:17:44;;;;;;;2.78;0.50;;;;;;;;;;4994124;28;20402;-78
2021/11/02 12:20:11;;;;;;;1.55;0.65;;;;;;;;;;4993851;28;20033;-77
2021/11/02 12:22:44;;;;;;;1.35;0.40;;;;;;;;;;4994783;28;20402;-76
2021/11/02 12:25:11;;;;;;;0.40;0.28;;;;;;;;;;4993615;28;20034;-77
2021/11/02 12:27:42;;;;;;;2.60;0.70;;;;;;;;;;4995270;28;20026;-76
2021/11/02 12:30:12;;;;;;;1.27;0.30;;;;;;;;;;4995634;28;20428;-77
2021/11/02 12:32:45;;;;;;;1.50;0.40;;;;;;;;;;4980674;28;20090;-77
2021/11/02 12:35:19;;;;;;;0.68;0.30;;;;;;;;;;4983625;28;20069;-77
2021/11/02 12:38:00;;;;;;;1.83;0.40;;;;;;;;;;4994364;28;20054;-77
2021/11/02 12:40:27;;;;;;;2.85;0.45;;;;;;;;;;4995907;28;20038;-77
2021/11/02 12:42:53;;;;;;;1.63;0.40;;;;;;;;;;4995062;28;20053;-77
2021/11/02 12:45:21;;;;;;;0.85;0.40;;;;;;;;;;4995443;28;20022;-77
2021/11/02 12:47:48;;;;;;;1.17;0.32;;;;;;;;;;4996308;28;20031;-76
2021/11/02 12:50:16;;;;;;;0.63;0.30;;;;;;;;;;4995969;28;20463;-76
2021/11/02 12:52:42;;;;;;;0.88;0.40;;;;;;;;;;4996340;28;20034;-78
2021/11/02 12:55:10;;;;;;;1.08;0.30;;;;;;;;;;4996229;28;20057;-78
2021/11/02 12:57:40;;;;;;;1.73;0.32;;;;;;;;;;4997661;28;20084;-78
2021/11/02 13:00:14;;;;;;;0.77;0.65;;;;;;;;;;4997454;28;20633;-78
2021/11/02 13:02:42;;;;;;;1.20;0.30;;;;;;;;;;4996713;28;20058;-77
2021/11/02 13:05:17;;;;;;;2.00;0.50;;;;;;;;;;4995471;28;20054;-77
2021/11/02 13:07:45;;;;;;;1.10;0.30;;;;;;;;;;4983755;28;20154;-77
2021/11/02 13:10:16;;;;;;;1.40;0.32;;;;;;;;;;4982209;28;20391;-79
2021/11/02 13:12:48;;;;;;;3.50;0.40;;;;;;;;;;4995548;28;20105;-78
2021/11/02 13:15:14;;;;;;;2.13;0.50;;;;;;;;;;4991465;28;20098;-78
2021/11/02 13:17:45;;;;;;;0.65;0.40;;;;;;;;;;4986499;28;20038;-78
2021/11/02 13:20:12;;;;;;;1.25;0.50;;;;;;;;;;4996102;28;20033;-77
2021/11/02 13:22:39;;;;;;;1.17;0.30;;;;;;;;;;4994700;28;20023;-78
2021/11/02 13:25:09;;;;;;;1.13;0.40;;;;;;;;;;4995039;28;20033;-78
2021/11/02 13:27:35;;;;;;;0.93;0.40;;;;;;;;;;4995917;28;20053;-78
2021/11/02 13:30:19;;;;;;;2.85;1.27;;;;;;;;;;4995991;28;20045;-78
2021/11/02 13:33:04;;;;;;;0.75;0.20;;;;;;;;;;4995900;28;20436;-78
2021/11/02 13:35:47;;;;;;;0.38;0.32;;;;;;;;;;4993207;28;20027;-78
2021/11/02 13:38:13;;;;;;;;;;;;;;;;;;4994339;28;20027;-79
2021/11/02 13:40:39;;;;;;;2.28;0.20;;;;;;;;;;4994324;28;19906;-78
2021/11/02 13:43:05;;;;;;;1.05;0.25;;;;;;;;;;5010600;28;20038;-78
2021/11/02 13:45:31;;;;;;;1.60;0.30;;;;;;;;;;4994176;28;20029;-78
2021/11/02 13:47:57;;;;;;;0.73;0.20;;;;;;;;;;4994601;28;20042;-79
2021/11/02 13:50:23;;;;;;;2.03;0.22;;;;;;;;;;4995285;28;20045;-78
2021/11/02 13:52:52;;;;;;;0.98;0.30;;;;;;;;;;4990134;28;20030;-78
2021/11/02 13:55:18;;;;;;;0.28;0.20;;;;;;;;;;4984589;28;20111;-78
2021/11/02 13:57:44;;;;;;;0.65;0.35;;;;;;;;;;4976435;28;20035;-78
2021/11/02 14:00:11;;;;;;;0.70;0.30;;;;;;;;;;4981856;28;20034;-78
2021/11/02 14:02:38;;;;;;;0.70;0.20;;;;;;;;;;4995059;28;20410;-78
2021/11/02 14:05:05;;;;;;;0.68;0.30;;;;;;;;;;4988255;28;20038;-78
2021/11/02 14:07:34;;;;;;;2.40;0.20;;;;;;;;;;4992674;28;20057;-79
2021/11/02 14:10:05;;;;;;;2.00;0.40;;;;;;;;;;4991558;28;20034;-79
2021/11/02 14:12:32;;;;;;;1.33;0.30;;;;;;;;;;4991319;28;20062;-78
2021/11/02 14:15:10;;;;;;;5.35;0.98;;;;;;;;;;4989479;28;20053;-78
2021/11/02 14:17:38;;;;;;;0.95;0.30;;;;;;;;;;4976072;28;20045;-79
2021/11/02 14:20:04;;;;;;;1.40;0.32;;;;;;;;;;4988463;28;20035;-78
2021/11/02 14:22:47;;;;;;;2.10;0.32;;;;;;;;;;4991071;28;20110;-78
2021/11/02 14:25:13;;;;;;;;;;;;;;;;;;4991298;28;20061;-78
2021/11/02 14:27:43;;;;;;;1.42;0.20;;;;;;;;;;4992129;28;19909;-78
2021/11/02 14:30:09;;;;;;;2.00;0.28;;;;;;;;;;4991498;28;20889;-78
2021/11/02 14:32:39;;;;;;;0.80;0.40;;;;;;;;;;4989656;28;20037;-78
2021/11/02 14:35:05;;;;;;;2.90;0.52;;;;;;;;;;4991291;28;20118;-79
2021/11/02 14:37:47;;;;;;;2.30;1.17;;;;;;;;;;4993474;28;20038;-79
2021/11/02 14:40:26;;;;;;;1.83;0.70;;;;;;;;;;4995634;28;20105;-83
2021/11/02 14:42:56;;;;;;;5.60;0.63;;;;;;;;;;4996971;28;20095;-85
2021/11/02 14:45:41;;;;;;;7.32;0.85;;;;;;;;;;4990806;28;20049;-81
2021/11/02 14:48:28;;;;;;;6.20;0.40;;;;;;;;;;4990355;28;20054;-82
2021/11/02 14:50:54;;;;;;;1.33;0.30;;;;;;;;;;4993392;28;20058;-82
2021/11/02 14:53:30;;;;;;;6.90;0.47;;;;;;;;;;4994081;28;20026;-81
2021/11/02 14:56:00;;;;;;;0.95;0.20;;;;;;;;;;4992580;28;20031;-81
2021/11/02 14:58:45;;;;;;;1.40;1.08;;;;;;;;;;4993590;28;20034;-81
2021/11/02 15:01:13;;;;;;;2.28;0.50;;;;;;;;;;4992582;28;20027;-81
2021/11/02 15:03:40;;;;;;;0.50;0.30;;;;;;;;;;4995104;28;20395;-83
2021/11/02 15:06:08;;;;;;;0.75;0.40;;;;;;;;;;4996598;28;20065;-82
2021/11/02 15:08:36;;;;;;;1.10;0.50;;;;;;;;;;4993429;28;20026;-82
2021/11/02 15:11:12;;;;;;;1.13;0.30;;;;;;;;;;4995292;28;20022;-82
2021/11/02 15:13:46;;;;;;;1.92;0.30;;;;;;;;;;5009796;28;20026;-82
2021/11/02 15:16:12;;;;;;;2.40;0.60;;;;;;;;;;4993478;28;20498;-82
2021/11/02 15:18:50;;;;;;;1.67;0.57;;;;;;;;;;4993094;28;20062;-82
2021/11/02 15:21:21;;;;;;;4.97;0.50;;;;;;;;;;4995199;28;20097;-82
2021/11/02 15:23:48;;;;;;;0.32;0.22;;;;;;;;;;4988574;28;20085;-81
2021/11/02 15:26:15;;;;;;;0.98;0.20;;;;;;;;;;5005648;28;20018;-79
2021/11/02 15:28:42;;;;;;;0.47;0.30;;;;;;;;;;5014245;28;20015;-79
2021/11/02 15:31:08;;;;;;;3.40;0.30;;;;;;;;;;4997932;28;20031;-81
2021/11/02 15:33:34;;;;;;;1.50;0.45;;;;;;;;;;4997887;28;20030;-82
2021/11/02 15:36:14;;;;;;;0.90;0.35;;;;;;;;;;4980585;28;20038;-78
2021/11/02 15:38:40;;;;;;;1.58;0.50;;;;;;;;;;4993022;28;20023;-78
2021/11/02 15:41:23;;;;;;;1.45;0.40;;;;;;;;;;4994962;28;20027;-79
2021/11/02 15:43:51;;;;;;;0.45;0.30;;;;;;;;;;4995940;28;20026;-79
2021/11/02 15:46:20;;;;;;;1.45;0.38;;;;;;;;;;4996115;28;20026;-79
2021/11/02 15:48:46;;;;;;;0.55;0.40;;;;;;;;;;4996349;28;20034;-79
2021/11/02 15:51:15;;;;;;;1.30;0.30;;;;;;;;;;4996198;28;20046;-80
2021/11/02 15:53:42;;;;;;;3.38;0.52;;;;;;;;;;4997253;28;20042;-80
2021/11/02 15:56:08;;;;;;;0.65;0.22;;;;;;;;;;5000093;28;20041;-79
2021/11/02 15:58:34;;;;;;;2.20;0.63;;;;;;;;;;5016577;28;20411;-80
2021/11/02 16:01:00;;;;;;;1.08;0.60;;;;;;;;;;5003106;28;20027;-81
2021/11/02 16:03:38;;;;;;;3.53;1.10;;;;;;;;;;5005502;28;20019;-79
2021/11/02 16:06:10;;;;;;;4.80;0.68;;;;;;;;;;5006193;28;20506;-79
2021/11/02 16:08:36;;;;;;;0.45;0.28;;;;;;;;;;5005872;28;20743;-79
2021/11/02 16:11:02;;;;;;;1.08;0.47;;;;;;;;;;5006265;28;20035;-79
2021/11/02 16:13:29;;;;;;;1.42;0.40;;;;;;;;;;5005137;28;20088;-79
2021/11/02 16:15:55;;;;;;;2.13;0.43;;;;;;;;;;5000619;28;20023;-79
2021/11/02 16:18:25;;;;;;;2.17;0.40;;;;;;;;;;4998622;28;20030;-79
2021/11/02 16:20:53;;;;;;;0.47;0.32;;;;;;;;;;4999092;28;20476;-79
2021/11/02 16:23:23;;;;;;;0.40;0.32;;;;;;;;;;4997668;28;20034;-79
2021/11/02 16:25:55;;;;;;;2.08;0.38;;;;;;;;;;4998947;28;20062;-79
2021/11/02 16:28:25;;;;;;;1.02;0.40;;;;;;;;;;5000292;28;20105;-79
2021/11/02 16:30:54;;;;;;;1.65;0.65;;;;;;;;;;4998368;28;20478;-77
2021/11/02 16:33:30;;;;;;;0.82;0.50;;;;;;;;;;4998627;28;20137;-79
2021/11/02 16:35:56;;;;;;;3.38;0.60;;;;;;;;;;4992674;28;20059;-79
2021/11/02 16:38:24;;;;;;;3.88;2.25;;;;;;;;;;4997071;28;20534;-79
2021/11/02 16:40:58;;;;;;;4.97;3.05;;;;;;;;;;4997461;28;20039;-79
2021/11/02 16:43:31;;;;;;;3.05;1.52;;;;;;;;;;4995920;28;20076;-79
2021/11/02 16:45:57;;;;;;;2.88;1.55;;;;;;;;;;4996152;28;20061;-79
2021/11/02 16:48:37;;;;;;;3.70;2.80;;;;;;;;;;4996376;28;20084;-79
2021/11/02 16:51:03;;;;;;;6.00;3.97;;;;;;;;;;4993547;28;20045;-79
2021/11/02 16:53:29;;;;;;;6.38;3.28;;;;;;;;;;4996255;28;20096;-78
2021/11/02 16:56:00;;;;;;;4.63;3.05;;;;;;;;;;4995713;28;20026;-78
2021/11/02 16:58:27;;;;;;;5.07;2.95;;;;;;;;;;4996496;28;20042;-78
2021/11/02 17:01:11;;;;;;;5.22;3.17;;;;;;;;;;4996083;28;20105;-78
2021/11/02 17:03:37;;;;;;;3.83;2.45;;;;;;;;;;4995698;28;20033;-79
2021/11/02 17:06:10;;;;;;;3.90;2.67;;;;;;;;;;4989552;28;20030;-80
2021/11/02 17:08:36;;;;;;;2.70;1.67;;;;;;;;;;4996448;28;20510;-79
2021/11/02 17:11:02;;;;;;;1.30;0.88;;;;;;;;;;4997816;28;20045;-79
2021/11/02 17:13:37;;;;;;;1.85;1.02;;;;;;;;;;5015306;28;20041;-77
2021/11/02 17:16:14;;;;;;;1.63;1.20;;;;;;;;;;5001355;28;20056;-79
2021/11/02 17:18:52;;;;;;;3.08;0.80;;;;;;;;;;4997275;28;20533;-78
2021/11/02 17:21:19;;;;;;;1.92;1.15;;;;;;;;;;4996938;28;20038;-77
2021/11/02 17:23:45;;;;;;;3.30;1.95;;;;;;;;;;4997717;28;20124;-79
2021/11/02 17:26:12;;;;;;;4.95;1.80;;;;;;;;;;4996983;28;20038;-78
2021/11/02 17:28:45;;;;;;;4.28;1.80;;;;;;;;;;5018663;23;20419;-80
2021/11/02 17:31:11;;;;;;;;;;;;;;;;;;5012262;28;20034;-79
2021/11/02 17:33:37;;;;;;;3.83;1.60;;;;;;;;;;5014067;28;20369;-80
2021/11/02 17:36:04;;;;;;;5.70;2.70;;;;;;;;;;4997062;28;20089;-81
2021/11/02 17:38:31;;;;;;;1.73;1.10;;;;;;;;;;5014012;28;20094;-79
2021/11/02 17:41:00;;;;;;;24.58;13.38;;;;;;;;;;5015342;28;20034;-79
2021/11/02 17:43:26;;;;;;;17.70;9.98;;;;;;;;;;5014904;28;20029;-77
2021/11/02 17:45:52;;;;;;;4.93;4.25;;;;;;;;;;5013587;28;20391;-80
2021/11/02 17:48:19;;;;;;;8.98;7.03;;;;;;;;;;5012857;28;20022;-80
2021/11/02 17:50:45;;;;;;;9.88;7.28;;;;;;;;;;5030810;28;20026;-80
2021/11/02 17:53:11;;;;;;;10.15;7.25;;;;;;;;;;5014945;28;20422;-80
2021/11/02 17:55:37;;;;;;;9.82;7.72;;;;;;;;;;5013155;28;20030;-79
2021/11/02 17:58:05;;;;;;;21.65;14.63;;;;;;;;;;5013994;28;20048;-81
2021/11/02 18:00:31;;;;;;;43.40;26.83;;;;;;;;;;5013421;28;20033;-82
2021/11/02 18:02:58;;;;;;;17.90;13.32;;;;;;;;;;5013659;28;20036;-82
2021/11/02 18:05:25;;;;;;;9.95;8.38;;;;;;;;;;5002616;28;20093;-80
2021/11/02 18:07:52;;;;;;;17.35;13.05;;;;;;;;;;4998260;28;20026;-79
2021/11/02 18:10:18;;;;;;;33.70;20.10;;;;;;;;;;5012706;28;20548;-83
2021/11/02 18:12:44;;;;;;;6.85;4.35;;;;;;;;;;5027766;28;20486;-78
2021/11/02 18:15:11;;;;;;;6.97;3.33;;;;;;;;;;5016818;28;20033;-79
2021/11/02 18:17:38;;;;;;;5.72;3.95;;;;;;;;;;5041254;28;20089;-79
2021/11/02 18:20:06;;;;;;;5.13;3.53;;;;;;;;;;5045528;28;20129;-79
2021/11/02 18:22:33;;;;;;;5.30;3.53;;;;;;;;;;5020897;28;20486;-77
2021/11/02 18:24:59;;;;;;;7.53;4.95;;;;;;;;;;5040154;28;20037;-79
2021/11/02 18:27:25;;;;;;;5.70;4.15;;;;;;;;;;5027172;28;20045;-78
2021/11/02 18:29:52;;;;;;;4.85;3.90;;;;;;;;;;5028689;28;20051;-78
2021/11/02 18:32:21;;;;;;;9.38;7.68;;;;;;;;;;5026393;28;20061;-78
2021/11/02 18:34:48;;;;;;;10.00;5.88;;;;;;;;;;5024918;28;20030;-79
2021/11/02 18:37:16;;;;;;;3.90;3.30;;;;;;;;;;5029330;28;20085;-79
2021/11/02 18:39:43;;;;;;;3.78;2.70;;;;;;;;;;5028789;28;20034;-79
2021/11/02 18:42:09;;;;;;;5.05;3.78;;;;;;;;;;5012773;28;20065;-79
2021/11/02 18:44:35;;;;;;;7.22;4.88;;;;;;;;;;5029541;28;20503;-79
2021/11/02 18:47:02;;;;;;;7.53;6.57;;;;;;;;;;5010776;28;20030;-79
2021/11/02 18:49:28;;;;;;;13.00;9.70;;;;;;;;;;5028412;28;20030;-79
2021/11/02 18:51:54;;;;;;;15.18;9.35;;;;;;;;;;5029177;28;20034;-79
2021/11/02 18:54:20;;;;;;;13.80;10.05;;;;;;;;;;5028485;28;20034;-80
2021/11/02 18:56:49;;;;;;;15.40;12.25;;;;;;;;;;5030386;28;20497;-79
2021/11/02 18:59:15;;;;;;;14.30;11.05;;;;;;;;;;5013425;28;20026;-79
2021/11/02 19:01:45;;;;;;;16.30;11.60;;;;;;;;;;5030029;28;20022;-80
2021/11/02 19:04:12;;;;;;;14.15;12.27;;;;;;;;;;5031371;28;20014;-79
2021/11/02 19:06:39;;;;;;;21.98;14.75;;;;;;;;;;5031053;28;20117;-80
2021/11/02 19:09:06;;;;;;;17.63;13.23;;;;;;;;;;5048099;28;20022;-78
2021/11/02 19:11:32;;;;;;;19.17;12.88;;;;;;;;;;5052047;28;20038;-78
2021/11/02 19:13:58;;;;;;;15.82;12.45;;;;;;;;;;5029994;28;20070;-81
2021/11/02 19:16:24;;;;;;;28.23;20.20;;;;;;;;;;5008952;28;20078;-79
2021/11/02 19:18:50;;;;;;;20.67;14.82;;;;;;;;;;5031665;28;20025;-79
2021/11/02 19:21:16;;;;;;;14.38;11.45;;;;;;;;;;5031845;28;20025;-81
2021/11/02 19:23:42;;;;;;;14.07;11.10;;;;;;;;;;5032005;28;20116;-80
2021/11/02 19:26:10;;;;;;;15.48;10.65;;;;;;;;;;5009308;28;20018;-79
2021/11/02 19:28:37;;;;;;;12.38;9.98;;;;;;;;;;5009855;28;20490;-81
2021/11/02 19:31:03;;;;;;;9.52;6.72;;;;;;;;;;5014319;28;20030;-79
2021/11/02 19:33:29;;;;;;;13.50;8.50;;;;;;;;;;5009596;28;20426;-81
2021/11/02 19:35:55;;;;;;;13.02;8.88;;;;;;;;;;5012319;28;20061;-80
2021/11/02 19:38:21;;;;;;;11.27;8.05;;;;;;;;;;5013457;28;20064;-81
2021/11/02 19:40:47;;;;;;;10.25;7.75;;;;;;;;;;5027513;28;20080;-79
2021/11/02 19:43:15;;;;;;;7.95;6.82;;;;;;;;;;5030746;28;20022;-79
2021/11/02 19:45:41;;;;;;;9.63;7.47;;;;;;;;;;5031620;28;20033;-80
2021/11/02 19:48:07;;;;;;;12.57;7.50;;;;;;;;;;5016604;28;20030;-80
2021/11/02 19:50:33;;;;;;;10.80;8.18;;;;;;;;;;5016768;28;20037;-81
2021/11/02 19:52:59;;;;;;;9.32;7.55;;;;;;;;;;5014932;28;20402;-79
2021/11/02 19:55:34;;;;;;;12.68;9.43;;;;;;;;;;5016445;28;20030;-80
2021/11/02 19:58:01;;;;;;;15.77;10.75;;;;;;;;;;5020388;28;20022;-79
2021/11/02 20:00:29;;;;;;;14.65;10.98;;;;;;;;;;5017506;28;20022;-80
2021/11/02 20:02:55;;;;;;;14.27;10.57;;;;;;;;;;5016952;28;20080;-80
2021/11/02 20:05:21;;;;;;;13.90;9.30;;;;;;;;;;5014943;28;20033;-80
2021/11/02 20:07:49;;;;;;;13.00;9.07;;;;;;;;;;5016647;28;20108;-81
2021/11/02 20:10:17;;;;;;;13.30;9.25;;;;;;;;;;5017016;28;20096;-81
2021/11/02 20:12:53;;;;;;;14.57;10.73;;;;;;;;;;5016731;28;20026;-80
2021/11/02 20:15:23;;;;;;;11.80;9.50;;;;;;;;;;5016387;28;20025;-80
2021/11/02 20:17:50;;;;;;;14.02;11.00;;;;;;;;;;5015397;28;20052;-80
2021/11/02 20:20:20;;;;;;;15.13;10.68;;;;;;;;;;5016634;28;20076;-80
2021/11/02 20:22:48;;;;;;;11.48;8.30;;;;;;;;;;5016322;28;20132;-78
2021/11/02 20:25:14;;;;;;;13.55;8.55;;;;;;;;;;5014175;28;20093;-81
2021/11/02 20:27:40;;;;;;;9.60;7.25;;;;;;;;;;5016345;28;20119;-80
2021/11/02 20:30:08;;;;;;;9.27;7.68;;;;;;;;;;5016753;28;20037;-80
2021/11/02 20:32:34;;;;;;;12.00;7.15;;;;;;;;;;5016721;28;20490;-80
2021/11/02 20:35:00;;;;;;;12.75;9.73;;;;;;;;;;5019089;28;20379;-79
2021/11/02 20:37:28;;;;;;;12.82;9.02;;;;;;;;;;5018519;28;20022;-80
2021/11/02 20:39:56;;;;;;;11.23;10.02;;;;;;;;;;5017945;28;20022;-79
2021/11/02 20:42:41;;;;;;;15.52;11.52;;;;;;;;;;5015877;28;20022;-79
2021/11/02 20:45:08;;;;;;;14.90;11.65;;;;;;;;;;5018176;28;20045;-79
2021/11/02 20:47:37;;;;;;;13.60;10.40;;;;;;;;;;5020576;28;20048;-79
2021/11/02 20:50:03;;;;;;;15.48;11.00;;;;;;;;;;5026140;28;20494;-79
2021/11/02 20:52:30;;;;;;;19.85;11.98;;;;;;;;;;5016380;28;20026;-77
2021/11/02 20:54:56;;;;;;;14.00;11.20;;;;;;;;;;5016926;28;20032;-78
2021/11/02 20:57:24;;;;;;;12.48;11.18;;;;;;;;;;5018153;28;20022;-78
2021/11/02 20:59:50;;;;;;;17.42;11.80;;;;;;;;;;5017403;28;20033;-78
2021/11/02 21:02:18;;;;;;;16.05;10.90;;;;;;;;;;5033852;28;20022;-78
2021/11/02 21:04:44;;;;;;;11.90;9.75;;;;;;;;;;5017573;28;20364;-78
2021/11/02 21:07:13;;;;;;;13.10;10.82;;;;;;;;;;5018752;28;20026;-79
2021/11/02 21:09:41;;;;;;;13.15;10.95;;;;;;;;;;5017636;28;20053;-79
2021/11/02 21:12:09;;;;;;;13.85;11.13;;;;;;;;;;5018658;28;20025;-79
2021/11/02 21:14:37;;;;;;;14.77;12.40;;;;;;;;;;5016940;28;20041;-79
2021/11/02 21:17:03;;;;;;;17.02;12.70;;;;;;;;;;5018605;28;20133;-79
2021/11/02 21:19:30;;;;;;;17.67;13.35;;;;;;;;;;5033632;28;20077;-79
2021/11/02 21:21:59;;;;;;;16.45;12.70;;;;;;;;;;5018981;28;20034;-78
2021/11/02 21:24:26;;;;;;;19.90;13.10;;;;;;;;;;5016576;28;20120;-79
2021/11/02 21:26:52;;;;;;;15.90;11.80;;;;;;;;;;5018561;28;20032;-79
2021/11/02 21:29:20;;;;;;;17.08;13.20;;;;;;;;;;5017174;28;20117;-79
2021/11/02 21:31:46;;;;;;;14.68;11.73;;;;;;;;;;5017316;28;20030;-79
2021/11/02 21:34:15;;;;;;;13.05;10.35;;;;;;;;;;5016897;28;20156;-79
2021/11/02 21:36:41;;;;;;;15.18;10.20;;;;;;;;;;4997275;28;20035;-79
2021/11/02 21:39:07;;;;;;;11.95;10.00;;;;;;;;;;4997548;28;20031;-78
2021/11/02 21:41:36;;;;;;;14.30;10.15;;;;;;;;;;4996293;28;20109;-79
2021/11/02 21:44:05;;;;;;;12.48;9.05;;;;;;;;;;4997142;28;20390;-79
2021/11/02 21:46:33;;;;;;;20.92;9.90;;;;;;;;;;5013438;28;20053;-78
2021/11/02 21:49:09;;;;;;;12.88;9.13;;;;;;;;;;5016717;28;20037;-78
2021/11/02 21:51:37;;;;;;;12.43;9.20;;;;;;;;;;5016464;28;20026;-78